sensor_id;sensor_type;location;lat;lon;timestamp;P1;durP1;ratioP1;P2;durP2;ratioP2
26269;SDS011;15937;50.612;6.656;2023-12-29T00:02:09;8.93;;;2.10;;
26269;SDS011;15937;50.612;6.656;2023-12-29T00:06:13;9.95;;;1.83;;
26269;SDS011;15937;50.612;6.656;2023-12-29T00:10:16;4.15;;;1.80;;
26269;SDS011;15937;50.612;6.656;2023-12-29T00:14:18;8.77;;;2.00;;
26269;SDS011;15937;50.612;6.656;2023-12-29T00:18:20;9.27;;;2.17;;
26269;SDS011;15937;50.612;6.656;2023-12-29T00:22:25;8.25;;;1.73;;
26269;SDS011;15937;50.612;6.656;2023-12-29T00:26:29;10.30;;;2.00;;
26269;SDS011;15937;50.612;6.656;2023-12-29T00:30:32;6.90;;;1.60;;
26269;SDS011;15937;50.612;6.656;2023-12-29T00:38:59;8.65;;;2.10;;
26269;SDS011;15937;50.612;6.656;2023-12-29T00:43:01;3.35;;;1.92;;
26269;SDS011;15937;50.612;6.656;2023-12-29T00:47:03;12.50;;;3.42;;
26269;SDS011;15937;50.612;6.656;2023-12-29T00:51:05;7.72;;;2.33;;
26269;SDS011;15937;50.612;6.656;2023-12-29T00:55:08;9.48;;;2.00;;
26269;SDS011;15937;50.612;6.656;2023-12-29T01:03:13;5.25;;;2.13;;
26269;SDS011;15937;50.612;6.656;2023-12-29T01:07:16;9.02;;;2.08;;
26269;SDS011;15937;50.612;6.656;2023-12-29T01:11:19;13.80;;;1.75;;
26269;SDS011;15937;50.612;6.656;2023-12-29T01:15:21;18.00;;;2.88;;
26269;SDS011;15937;50.612;6.656;2023-12-29T01:19:23;4.90;;;1.50;;
26269;SDS011;15937;50.612;6.656;2023-12-29T01:23:26;5.13;;;1.60;;
26269;SDS011;15937;50.612;6.656;2023-12-29T01:31:33;15.15;;;1.83;;
26269;SDS011;15937;50.612;6.656;2023-12-29T01:35:35;14.60;;;2.58;;
26269;SDS011;15937;50.612;6.656;2023-12-29T01:39:39;8.70;;;1.50;;
26269;SDS011;15937;50.612;6.656;2023-12-29T01:48:05;8.00;;;1.50;;
26269;SDS011;15937;50.612;6.656;2023-12-29T01:52:08;14.15;;;2.22;;
26269;SDS011;15937;50.612;6.656;2023-12-29T01:56:11;10.45;;;2.05;;
26269;SDS011;15937;50.612;6.656;2023-12-29T02:00:13;5.80;;;1.45;;
26269;SDS011;15937;50.612;6.656;2023-12-29T02:04:23;7.07;;;1.60;;
26269;SDS011;15937;50.612;6.656;2023-12-29T02:08:28;8.88;;;1.67;;
26269;SDS011;15937;50.612;6.656;2023-12-29T02:12:34;6.35;;;1.73;;
26269;SDS011;15937;50.612;6.656;2023-12-29T02:16:40;7.75;;;1.70;;
26269;SDS011;15937;50.612;6.656;2023-12-29T02:21:09;7.65;;;1.60;;
26269;SDS011;15937;50.612;6.656;2023-12-29T02:25:11;4.20;;;1.50;;
26269;SDS011;15937;50.612;6.656;2023-12-29T02:29:14;3.88;;;2.00;;
26269;SDS011;15937;50.612;6.656;2023-12-29T02:33:22;8.00;;;1.70;;
26269;SDS011;15937;50.612;6.656;2023-12-29T02:37:27;6.35;;;1.70;;
26269;SDS011;15937;50.612;6.656;2023-12-29T02:41:29;7.78;;;1.73;;
26269;SDS011;15937;50.612;6.656;2023-12-29T02:45:32;3.83;;;1.60;;
26269;SDS011;15937;50.612;6.656;2023-12-29T02:49:34;11.25;;;1.65;;
26269;SDS011;15937;50.612;6.656;2023-12-29T02:53:36;11.75;;;1.95;;
26269;SDS011;15937;50.612;6.656;2023-12-29T02:57:38;7.30;;;1.50;;
26269;SDS011;15937;50.612;6.656;2023-12-29T03:01:41;8.73;;;1.60;;
26269;SDS011;15937;50.612;6.656;2023-12-29T03:09:47;3.30;;;1.30;;
26269;SDS011;15937;50.612;6.656;2023-12-29T03:13:51;4.15;;;1.38;;
26269;SDS011;15937;50.612;6.656;2023-12-29T03:17:54;9.80;;;1.73;;
26269;SDS011;15937;50.612;6.656;2023-12-29T03:21:56;7.72;;;1.50;;
26269;SDS011;15937;50.612;6.656;2023-12-29T03:25:58;5.23;;;1.60;;
26269;SDS011;15937;50.612;6.656;2023-12-29T03:30:00;6.22;;;1.52;;
26269;SDS011;15937;50.612;6.656;2023-12-29T03:34:03;7.27;;;1.50;;
26269;SDS011;15937;50.612;6.656;2023-12-29T03:38:05;8.30;;;1.40;;
26269;SDS011;15937;50.612;6.656;2023-12-29T03:42:07;6.18;;;1.98;;
26269;SDS011;15937;50.612;6.656;2023-12-29T03:46:20;2.50;;;1.00;;
26269;SDS011;15937;50.612;6.656;2023-12-29T03:54:25;9.30;;;1.43;;
26269;SDS011;15937;50.612;6.656;2023-12-29T03:58:28;7.25;;;1.58;;
26269;SDS011;15937;50.612;6.656;2023-12-29T04:06:33;7.78;;;1.30;;
26269;SDS011;15937;50.612;6.656;2023-12-29T04:10:35;11.48;;;1.70;;
26269;SDS011;15937;50.612;6.656;2023-12-29T04:14:37;5.50;;;1.60;;
26269;SDS011;15937;50.612;6.656;2023-12-29T04:18:41;7.68;;;1.52;;
26269;SDS011;15937;50.612;6.656;2023-12-29T04:22:46;13.18;;;1.60;;
26269;SDS011;15937;50.612;6.656;2023-12-29T04:26:49;7.13;;;1.70;;
26269;SDS011;15937;50.612;6.656;2023-12-29T04:30:51;11.90;;;2.00;;
26269;SDS011;15937;50.612;6.656;2023-12-29T04:34:53;6.00;;;1.90;;
26269;SDS011;15937;50.612;6.656;2023-12-29T04:38:55;7.03;;;1.87;;
26269;SDS011;15937;50.612;6.656;2023-12-29T04:42:57;3.27;;;1.37;;
26269;SDS011;15937;50.612;6.656;2023-12-29T04:47:00;10.60;;;2.53;;
26269;SDS011;15937;50.612;6.656;2023-12-29T04:51:02;16.17;;;1.88;;
26269;SDS011;15937;50.612;6.656;2023-12-29T04:55:05;8.55;;;1.50;;
26269;SDS011;15937;50.612;6.656;2023-12-29T04:59:08;7.22;;;1.40;;
26269;SDS011;15937;50.612;6.656;2023-12-29T05:03:10;11.85;;;1.58;;
26269;SDS011;15937;50.612;6.656;2023-12-29T05:07:12;6.57;;;1.60;;
26269;SDS011;15937;50.612;6.656;2023-12-29T05:11:15;3.17;;;1.05;;
26269;SDS011;15937;50.612;6.656;2023-12-29T05:15:18;8.55;;;1.30;;
26269;SDS011;15937;50.612;6.656;2023-12-29T05:19:20;10.63;;;1.35;;
26269;SDS011;15937;50.612;6.656;2023-12-29T05:23:24;7.40;;;1.23;;
26269;SDS011;15937;50.612;6.656;2023-12-29T05:27:26;7.13;;;1.47;;
26269;SDS011;15937;50.612;6.656;2023-12-29T05:31:29;12.65;;;2.10;;
26269;SDS011;15937;50.612;6.656;2023-12-29T05:35:31;11.07;;;2.42;;
26269;SDS011;15937;50.612;6.656;2023-12-29T05:39:35;6.78;;;1.50;;
26269;SDS011;15937;50.612;6.656;2023-12-29T05:43:37;3.88;;;1.38;;
26269;SDS011;15937;50.612;6.656;2023-12-29T05:47:39;9.82;;;2.08;;
26269;SDS011;15937;50.612;6.656;2023-12-29T05:51:42;5.07;;;1.57;;
26269;SDS011;15937;50.612;6.656;2023-12-29T05:55:46;4.53;;;1.20;;
26269;SDS011;15937;50.612;6.656;2023-12-29T05:59:51;5.47;;;1.23;;
26269;SDS011;15937;50.612;6.656;2023-12-29T06:03:54;6.10;;;1.88;;
26269;SDS011;15937;50.612;6.656;2023-12-29T06:07:56;2.95;;;1.38;;
26269;SDS011;15937;50.612;6.656;2023-12-29T06:12:03;8.23;;;1.27;;
26269;SDS011;15937;50.612;6.656;2023-12-29T06:16:19;5.63;;;1.20;;
26269;SDS011;15937;50.612;6.656;2023-12-29T06:33:15;4.95;;;1.17;;
26269;SDS011;15937;50.612;6.656;2023-12-29T06:37:18;2.45;;;1.00;;
26269;SDS011;15937;50.612;6.656;2023-12-29T06:41:32;1.55;;;0.95;;
26269;SDS011;15937;50.612;6.656;2023-12-29T06:45:36;7.45;;;1.30;;
26269;SDS011;15937;50.612;6.656;2023-12-29T06:49:41;6.95;;;1.83;;
26269;SDS011;15937;50.612;6.656;2023-12-29T06:53:49;5.70;;;1.25;;
26269;SDS011;15937;50.612;6.656;2023-12-29T06:58:13;3.33;;;1.55;;
26269;SDS011;15937;50.612;6.656;2023-12-29T07:02:16;2.20;;;1.20;;
26269;SDS011;15937;50.612;6.656;2023-12-29T07:15:00;3.38;;;1.60;;
26269;SDS011;15937;50.612;6.656;2023-12-29T07:44:33;4.28;;;1.48;;
26269;SDS011;15937;50.612;6.656;2023-12-29T07:48:35;5.13;;;2.00;;
26269;SDS011;15937;50.612;6.656;2023-12-29T07:52:45;10.23;;;1.52;;
26269;SDS011;15937;50.612;6.656;2023-12-29T07:56:54;4.22;;;1.20;;
26269;SDS011;15937;50.612;6.656;2023-12-29T08:01:15;8.05;;;1.77;;
26269;SDS011;15937;50.612;6.656;2023-12-29T08:05:32;5.75;;;1.90;;
26269;SDS011;15937;50.612;6.656;2023-12-29T08:09:54;5.03;;;1.40;;
26269;SDS011;15937;50.612;6.656;2023-12-29T08:14:21;18.58;;;2.42;;
26269;SDS011;15937;50.612;6.656;2023-12-29T08:18:34;6.30;;;1.65;;
26269;SDS011;15937;50.612;6.656;2023-12-29T08:31:33;15.98;;;1.70;;
26269;SDS011;15937;50.612;6.656;2023-12-29T08:35:36;7.38;;;1.52;;
26269;SDS011;15937;50.612;6.656;2023-12-29T08:40:08;3.08;;;1.25;;
26269;SDS011;15937;50.612;6.656;2023-12-29T08:44:13;8.80;;;1.60;;
26269;SDS011;15937;50.612;6.656;2023-12-29T08:48:20;3.22;;;1.00;;
26269;SDS011;15937;50.612;6.656;2023-12-29T08:52:28;5.47;;;1.50;;
26269;SDS011;15937;50.612;6.656;2023-12-29T08:56:48;6.53;;;1.55;;
26269;SDS011;15937;50.612;6.656;2023-12-29T09:00:49;4.63;;;1.30;;
26269;SDS011;15937;50.612;6.656;2023-12-29T09:04:55;3.70;;;0.95;;
26269;SDS011;15937;50.612;6.656;2023-12-29T09:09:04;2.55;;;1.42;;
26269;SDS011;15937;50.612;6.656;2023-12-29T09:13:15;9.48;;;4.25;;
26269;SDS011;15937;50.612;6.656;2023-12-29T09:17:26;2.42;;;1.00;;
26269;SDS011;15937;50.612;6.656;2023-12-29T09:22:01;6.93;;;1.10;;
26269;SDS011;15937;50.612;6.656;2023-12-29T09:26:29;4.88;;;1.08;;
26269;SDS011;15937;50.612;6.656;2023-12-29T09:31:08;2.28;;;0.82;;
26269;SDS011;15937;50.612;6.656;2023-12-29T09:35:37;2.10;;;1.00;;
26269;SDS011;15937;50.612;6.656;2023-12-29T09:40:07;2.45;;;0.90;;
26269;SDS011;15937;50.612;6.656;2023-12-29T09:44:39;2.60;;;1.02;;
26269;SDS011;15937;50.612;6.656;2023-12-29T09:49:17;1.50;;;0.75;;
26269;SDS011;15937;50.612;6.656;2023-12-29T09:53:46;2.92;;;1.45;;
26269;SDS011;15937;50.612;6.656;2023-12-29T09:57:49;3.63;;;1.13;;
26269;SDS011;15937;50.612;6.656;2023-12-29T10:06:47;4.70;;;1.98;;
26269;SDS011;15937;50.612;6.656;2023-12-29T10:10:51;4.10;;;1.40;;
26269;SDS011;15937;50.612;6.656;2023-12-29T10:19:20;6.78;;;2.08;;
26269;SDS011;15937;50.612;6.656;2023-12-29T10:23:28;4.43;;;0.90;;
26269;SDS011;15937;50.612;6.656;2023-12-29T10:27:42;4.72;;;0.82;;
26269;SDS011;15937;50.612;6.656;2023-12-29T10:31:44;0.90;;;0.70;;
26269;SDS011;15937;50.612;6.656;2023-12-29T10:36:02;2.20;;;0.75;;
26269;SDS011;15937;50.612;6.656;2023-12-29T10:40:07;3.08;;;0.90;;
26269;SDS011;15937;50.612;6.656;2023-12-29T10:44:32;1.05;;;0.60;;
26269;SDS011;15937;50.612;6.656;2023-12-29T10:48:41;1.65;;;0.90;;
26269;SDS011;15937;50.612;6.656;2023-12-29T10:53:14;0.70;;;0.70;;
26269;SDS011;15937;50.612;6.656;2023-12-29T10:57:20;1.33;;;0.77;;
26269;SDS011;15937;50.612;6.656;2023-12-29T11:01:40;2.60;;;1.23;;
26269;SDS011;15937;50.612;6.656;2023-12-29T11:05:58;2.17;;;0.90;;
26269;SDS011;15937;50.612;6.656;2023-12-29T11:10:25;3.63;;;0.80;;
26269;SDS011;15937;50.612;6.656;2023-12-29T11:14:31;0.93;;;0.80;;
26269;SDS011;15937;50.612;6.656;2023-12-29T11:18:41;1.80;;;0.83;;
26269;SDS011;15937;50.612;6.656;2023-12-29T11:23:03;0.82;;;0.80;;
26269;SDS011;15937;50.612;6.656;2023-12-29T11:27:25;1.42;;;0.73;;
26269;SDS011;15937;50.612;6.656;2023-12-29T11:31:30;0.75;;;0.63;;
26269;SDS011;15937;50.612;6.656;2023-12-29T11:35:53;1.05;;;0.95;;
26269;SDS011;15937;50.612;6.656;2023-12-29T11:40:04;0.60;;;0.60;;
26269;SDS011;15937;50.612;6.656;2023-12-29T11:44:16;0.70;;;0.60;;
26269;SDS011;15937;50.612;6.656;2023-12-29T11:52:57;1.98;;;1.00;;
26269;SDS011;15937;50.612;6.656;2023-12-29T12:01:12;2.80;;;0.80;;
26269;SDS011;15937;50.612;6.656;2023-12-29T12:05:21;2.70;;;1.27;;
26269;SDS011;15937;50.612;6.656;2023-12-29T12:09:46;1.75;;;0.88;;
26269;SDS011;15937;50.612;6.656;2023-12-29T12:13:56;3.90;;;1.10;;
26269;SDS011;15937;50.612;6.656;2023-12-29T12:18:00;0.85;;;0.85;;
26269;SDS011;15937;50.612;6.656;2023-12-29T12:22:13;4.45;;;1.30;;
26269;SDS011;15937;50.612;6.656;2023-12-29T12:26:27;2.30;;;0.77;;
26269;SDS011;15937;50.612;6.656;2023-12-29T12:30:41;0.75;;;0.65;;
26269;SDS011;15937;50.612;6.656;2023-12-29T12:35:01;0.75;;;0.70;;
26269;SDS011;15937;50.612;6.656;2023-12-29T12:39:20;2.35;;;0.80;;
26269;SDS011;15937;50.612;6.656;2023-12-29T12:43:29;1.00;;;0.90;;
26269;SDS011;15937;50.612;6.656;2023-12-29T12:47:52;1.65;;;0.90;;
26269;SDS011;15937;50.612;6.656;2023-12-29T12:52:11;0.70;;;0.70;;
26269;SDS011;15937;50.612;6.656;2023-12-29T12:56:13;1.03;;;0.80;;
26269;SDS011;15937;50.612;6.656;2023-12-29T13:00:16;2.33;;;0.73;;
26269;SDS011;15937;50.612;6.656;2023-12-29T13:04:19;1.77;;;1.05;;
26269;SDS011;15937;50.612;6.656;2023-12-29T13:08:22;1.40;;;0.80;;
26269;SDS011;15937;50.612;6.656;2023-12-29T13:16:37;4.07;;;2.22;;
26269;SDS011;15937;50.612;6.656;2023-12-29T13:24:46;1.83;;;0.80;;
26269;SDS011;15937;50.612;6.656;2023-12-29T13:28:48;1.48;;;0.80;;
26269;SDS011;15937;50.612;6.656;2023-12-29T13:32:51;2.17;;;1.33;;
26269;SDS011;15937;50.612;6.656;2023-12-29T13:36:54;1.73;;;1.52;;
26269;SDS011;15937;50.612;6.656;2023-12-29T13:41:18;2.67;;;1.10;;
26269;SDS011;15937;50.612;6.656;2023-12-29T13:45:23;0.77;;;0.77;;
26269;SDS011;15937;50.612;6.656;2023-12-29T13:49:26;1.00;;;0.90;;
26269;SDS011;15937;50.612;6.656;2023-12-29T13:53:28;1.95;;;0.88;;
26269;SDS011;15937;50.612;6.656;2023-12-29T13:57:31;0.90;;;0.80;;
26269;SDS011;15937;50.612;6.656;2023-12-29T14:01:35;1.27;;;1.00;;
26269;SDS011;15937;50.612;6.656;2023-12-29T14:05:48;0.77;;;0.63;;
26269;SDS011;15937;50.612;6.656;2023-12-29T14:09:56;8.00;;;0.75;;
26269;SDS011;15937;50.612;6.656;2023-12-29T14:13:58;1.90;;;1.25;;
26269;SDS011;15937;50.612;6.656;2023-12-29T14:18:00;2.85;;;1.17;;
26269;SDS011;15937;50.612;6.656;2023-12-29T14:22:03;0.60;;;0.60;;
26269;SDS011;15937;50.612;6.656;2023-12-29T14:26:05;0.70;;;0.70;;
26269;SDS011;15937;50.612;6.656;2023-12-29T14:30:19;1.52;;;0.68;;
26269;SDS011;15937;50.612;6.656;2023-12-29T14:34:21;1.40;;;0.95;;
26269;SDS011;15937;50.612;6.656;2023-12-29T14:38:25;0.73;;;0.73;;
26269;SDS011;15937;50.612;6.656;2023-12-29T14:42:27;1.03;;;0.77;;
26269;SDS011;15937;50.612;6.656;2023-12-29T14:46:29;3.30;;;0.90;;
26269;SDS011;15937;50.612;6.656;2023-12-29T14:50:31;1.98;;;1.50;;
26269;SDS011;15937;50.612;6.656;2023-12-29T14:54:33;4.35;;;0.98;;
26269;SDS011;15937;50.612;6.656;2023-12-29T14:58:35;3.92;;;1.00;;
26269;SDS011;15937;50.612;6.656;2023-12-29T15:02:38;7.93;;;2.40;;
26269;SDS011;15937;50.612;6.656;2023-12-29T15:06:40;5.28;;;2.05;;
26269;SDS011;15937;50.612;6.656;2023-12-29T15:10:42;2.50;;;1.38;;
26269;SDS011;15937;50.612;6.656;2023-12-29T15:14:45;1.13;;;0.80;;
26269;SDS011;15937;50.612;6.656;2023-12-29T15:18:47;1.80;;;1.20;;
26269;SDS011;15937;50.612;6.656;2023-12-29T15:22:50;1.67;;;1.10;;
26269;SDS011;15937;50.612;6.656;2023-12-29T15:26:54;0.90;;;0.90;;
26269;SDS011;15937;50.612;6.656;2023-12-29T15:30:56;0.80;;;0.80;;
26269;SDS011;15937;50.612;6.656;2023-12-29T15:34:58;2.30;;;0.85;;
26269;SDS011;15937;50.612;6.656;2023-12-29T15:39:00;1.23;;;0.80;;
26269;SDS011;15937;50.612;6.656;2023-12-29T15:43:03;0.67;;;0.67;;
26269;SDS011;15937;50.612;6.656;2023-12-29T15:47:05;1.17;;;0.85;;
26269;SDS011;15937;50.612;6.656;2023-12-29T15:51:07;0.77;;;0.77;;
26269;SDS011;15937;50.612;6.656;2023-12-29T15:55:10;1.50;;;1.20;;
26269;SDS011;15937;50.612;6.656;2023-12-29T15:59:12;1.27;;;0.80;;
26269;SDS011;15937;50.612;6.656;2023-12-29T16:03:14;2.17;;;1.23;;
26269;SDS011;15937;50.612;6.656;2023-12-29T16:07:19;1.00;;;0.80;;
26269;SDS011;15937;50.612;6.656;2023-12-29T16:11:25;0.70;;;0.70;;
26269;SDS011;15937;50.612;6.656;2023-12-29T16:15:28;2.78;;;1.27;;
26269;SDS011;15937;50.612;6.656;2023-12-29T16:19:31;0.90;;;0.80;;
26269;SDS011;15937;50.612;6.656;2023-12-29T16:23:33;0.63;;;0.63;;
26269;SDS011;15937;50.612;6.656;2023-12-29T16:27:35;4.03;;;1.10;;
26269;SDS011;15937;50.612;6.656;2023-12-29T16:31:37;4.57;;;2.08;;
26269;SDS011;15937;50.612;6.656;2023-12-29T16:35:39;1.10;;;0.80;;
26269;SDS011;15937;50.612;6.656;2023-12-29T16:39:43;1.52;;;1.10;;
26269;SDS011;15937;50.612;6.656;2023-12-29T16:43:45;1.85;;;0.75;;
26269;SDS011;15937;50.612;6.656;2023-12-29T16:47:49;2.20;;;0.70;;
26269;SDS011;15937;50.612;6.656;2023-12-29T16:51:51;0.70;;;0.70;;
26269;SDS011;15937;50.612;6.656;2023-12-29T16:55:53;1.00;;;0.93;;
26269;SDS011;15937;50.612;6.656;2023-12-29T16:59:57;1.55;;;1.10;;
26269;SDS011;15937;50.612;6.656;2023-12-29T17:03:59;0.98;;;0.98;;
26269;SDS011;15937;50.612;6.656;2023-12-29T17:08:01;0.75;;;0.75;;
26269;SDS011;15937;50.612;6.656;2023-12-29T17:12:04;0.70;;;0.70;;
26269;SDS011;15937;50.612;6.656;2023-12-29T17:16:06;1.65;;;0.98;;
26269;SDS011;15937;50.612;6.656;2023-12-29T17:20:08;1.50;;;0.80;;
26269;SDS011;15937;50.612;6.656;2023-12-29T17:24:11;0.70;;;0.70;;
26269;SDS011;15937;50.612;6.656;2023-12-29T17:28:13;3.35;;;1.10;;
26269;SDS011;15937;50.612;6.656;2023-12-29T17:32:15;0.80;;;0.77;;
26269;SDS011;15937;50.612;6.656;2023-12-29T17:36:17;1.03;;;0.60;;
26269;SDS011;15937;50.612;6.656;2023-12-29T17:40:20;1.05;;;0.80;;
26269;SDS011;15937;50.612;6.656;2023-12-29T17:44:22;5.13;;;1.10;;
26269;SDS011;15937;50.612;6.656;2023-12-29T17:48:24;7.63;;;1.65;;
26269;SDS011;15937;50.612;6.656;2023-12-29T17:52:26;2.67;;;0.88;;
26269;SDS011;15937;50.612;6.656;2023-12-29T17:56:28;4.07;;;1.15;;
26269;SDS011;15937;50.612;6.656;2023-12-29T18:00:30;2.03;;;0.97;;
26269;SDS011;15937;50.612;6.656;2023-12-29T18:04:33;1.38;;;1.10;;
26269;SDS011;15937;50.612;6.656;2023-12-29T18:08:35;2.83;;;1.00;;
26269;SDS011;15937;50.612;6.656;2023-12-29T18:12:37;4.50;;;1.30;;
26269;SDS011;15937;50.612;6.656;2023-12-29T18:16:40;0.80;;;0.80;;
26269;SDS011;15937;50.612;6.656;2023-12-29T19:38:14;4.10;;;1.50;;
26269;SDS011;15937;50.612;6.656;2023-12-29T19:42:18;10.20;;;1.38;;
26269;SDS011;15937;50.612;6.656;2023-12-29T19:46:20;5.57;;;1.40;;
26269;SDS011;15937;50.612;6.656;2023-12-29T19:50:25;4.65;;;1.25;;
26269;SDS011;15937;50.612;6.656;2023-12-29T19:54:28;7.57;;;1.70;;
26269;SDS011;15937;50.612;6.656;2023-12-29T19:58:30;6.63;;;1.57;;
26269;SDS011;15937;50.612;6.656;2023-12-29T20:02:32;4.50;;;1.65;;
26269;SDS011;15937;50.612;6.656;2023-12-29T20:06:34;6.70;;;2.20;;
26269;SDS011;15937;50.612;6.656;2023-12-29T20:10:37;4.63;;;1.58;;
26269;SDS011;15937;50.612;6.656;2023-12-29T20:14:39;4.22;;;1.45;;
26269;SDS011;15937;50.612;6.656;2023-12-29T20:18:41;5.18;;;1.50;;
26269;SDS011;15937;50.612;6.656;2023-12-29T20:22:43;3.85;;;1.65;;
26269;SDS011;15937;50.612;6.656;2023-12-29T20:26:45;6.20;;;1.33;;
26269;SDS011;15937;50.612;6.656;2023-12-29T20:30:47;8.88;;;1.67;;
26269;SDS011;15937;50.612;6.656;2023-12-29T20:34:49;11.90;;;1.57;;
26269;SDS011;15937;50.612;6.656;2023-12-29T20:38:52;4.00;;;1.47;;
26269;SDS011;15937;50.612;6.656;2023-12-29T20:42:56;10.77;;;2.03;;
26269;SDS011;15937;50.612;6.656;2023-12-29T20:46:59;3.03;;;1.38;;
26269;SDS011;15937;50.612;6.656;2023-12-29T20:51:01;14.27;;;3.17;;
26269;SDS011;15937;50.612;6.656;2023-12-29T20:55:11;9.15;;;2.67;;
26269;SDS011;15937;50.612;6.656;2023-12-29T20:59:13;11.33;;;4.20;;
26269;SDS011;15937;50.612;6.656;2023-12-29T21:07:18;12.40;;;2.38;;
26269;SDS011;15937;50.612;6.656;2023-12-29T21:11:20;8.50;;;2.30;;
26269;SDS011;15937;50.612;6.656;2023-12-29T21:15:22;5.03;;;1.85;;
26269;SDS011;15937;50.612;6.656;2023-12-29T21:19:24;11.60;;;2.58;;
26269;SDS011;15937;50.612;6.656;2023-12-29T21:23:26;7.53;;;2.10;;
26269;SDS011;15937;50.612;6.656;2023-12-29T21:27:29;10.45;;;2.17;;
26269;SDS011;15937;50.612;6.656;2023-12-29T21:31:34;10.43;;;1.98;;
26269;SDS011;15937;50.612;6.656;2023-12-29T21:35:36;19.57;;;2.57;;
26269;SDS011;15937;50.612;6.656;2023-12-29T21:39:38;15.70;;;1.98;;
26269;SDS011;15937;50.612;6.656;2023-12-29T21:43:42;9.93;;;1.88;;
26269;SDS011;15937;50.612;6.656;2023-12-29T21:47:46;12.88;;;2.25;;
26269;SDS011;15937;50.612;6.656;2023-12-29T21:51:48;8.32;;;1.70;;
26269;SDS011;15937;50.612;6.656;2023-12-29T21:55:51;5.47;;;1.40;;
26269;SDS011;15937;50.612;6.656;2023-12-29T21:59:54;23.58;;;4.18;;
26269;SDS011;15937;50.612;6.656;2023-12-29T22:03:56;14.98;;;2.97;;
26269;SDS011;15937;50.612;6.656;2023-12-29T22:07:59;10.70;;;1.93;;
26269;SDS011;15937;50.612;6.656;2023-12-29T22:12:01;5.63;;;2.37;;
26269;SDS011;15937;50.612;6.656;2023-12-29T22:16:03;13.90;;;2.08;;
26269;SDS011;15937;50.612;6.656;2023-12-29T22:20:05;15.38;;;2.53;;
26269;SDS011;15937;50.612;6.656;2023-12-29T22:24:08;15.40;;;2.90;;
26269;SDS011;15937;50.612;6.656;2023-12-29T22:28:10;14.40;;;2.43;;
26269;SDS011;15937;50.612;6.656;2023-12-29T22:32:14;8.80;;;1.95;;
26269;SDS011;15937;50.612;6.656;2023-12-29T22:36:18;13.10;;;2.28;;
26269;SDS011;15937;50.612;6.656;2023-12-29T22:40:20;14.85;;;2.70;;
26269;SDS011;15937;50.612;6.656;2023-12-29T22:44:23;11.63;;;1.80;;
26269;SDS011;15937;50.612;6.656;2023-12-29T22:48:25;15.97;;;2.57;;
26269;SDS011;15937;50.612;6.656;2023-12-29T22:52:27;6.87;;;1.60;;
26269;SDS011;15937;50.612;6.656;2023-12-29T22:56:29;23.47;;;7.30;;
26269;SDS011;15937;50.612;6.656;2023-12-29T23:00:31;22.95;;;7.95;;
26269;SDS011;15937;50.612;6.656;2023-12-29T23:04:38;19.00;;;5.03;;
26269;SDS011;15937;50.612;6.656;2023-12-29T23:08:40;13.50;;;2.42;;
26269;SDS011;15937;50.612;6.656;2023-12-29T23:12:42;18.00;;;2.80;;
26269;SDS011;15937;50.612;6.656;2023-12-29T23:16:44;20.52;;;2.40;;
26269;SDS011;15937;50.612;6.656;2023-12-29T23:20:47;16.27;;;2.33;;
26269;SDS011;15937;50.612;6.656;2023-12-29T23:24:49;9.73;;;2.13;;
26269;SDS011;15937;50.612;6.656;2023-12-29T23:28:53;8.90;;;1.90;;
26269;SDS011;15937;50.612;6.656;2023-12-29T23:32:55;13.93;;;2.17;;
26269;SDS011;15937;50.612;6.656;2023-12-29T23:37:02;4.78;;;1.38;;
26269;SDS011;15937;50.612;6.656;2023-12-29T23:41:04;10.63;;;1.77;;
26269;SDS011;15937;50.612;6.656;2023-12-29T23:45:06;14.93;;;1.80;;
26269;SDS011;15937;50.612;6.656;2023-12-29T23:49:08;13.10;;;2.22;;
26269;SDS011;15937;50.612;6.656;2023-12-29T23:53:11;11.93;;;1.75;;
26269;SDS011;15937;50.612;6.656;2023-12-29T23:57:12;18.02;;;2.30;;
